Date,TemperatureHighF,TemperatureAvgF,TemperatureLowF,DewpointHighF,DewpointAvgF,DewpointLowF,HumidityHigh,HumidityAvg,HumidityLow,PressureMaxIn,PressureMinIn,WindSpeedMaxMPH,WindSpeedAvgMPH,GustSpeedMaxMPH,PrecipitationSumIn
2013-4-1,44,34,30,30,28,25,87,78,57,30.01,29.93,4,1,17,0.00
2013-4-2,45,35,30,35,28,24,85,75,57,30.19,30.01,5,1,14,0.00
2013-4-3,48,33,26,32,26,23,93,77,52,30.23,30.17,5,2,12,0.00
2013-4-4,43,36,33,34,30,28,90,79,58,30.21,30.13,7,3,15,0.00
2013-4-5,44,38,36,34,33,29,93,81,60,30.23,30.11,4,2,11,0.00
2013-4-6,49,36,27,36,29,24,90,76,54,30.27,30.19,4,1,9,0.00
2013-4-7,52,36,30,37,31,27,91,81,51,30.20,29.92,2,0,8,0.00
2013-4-8,45,39,36,37,34,30,88,81,67,29.93,29.66,4,1,16,0.00
2013-4-9,48,40,32,37,32,27,84,75,64,29.65,29.58,5,2,14,0.00
2013-4-10,53,44,35,39,36,31,91,75,53,29.65,29.54,2,1,12,0.00
2013-4-11,50,42,36,40,37,34,93,84,66,29.54,29.36,4,2,14,0.00
2013-4-12,55,44,38,47,42,37,97,90,69,29.62,29.33,5,1,11,0.11
2013-4-13,58,47,36,51,44,36,99,90,58,29.75,29.56,6,2,20,0.04
2013-4-14,56,53,50,54,51,48,99,93,80,29.63,29.49,18,12,36,0.33
2013-4-15,56,52,48,50,48,46,98,87,70,29.84,29.62,17,10,38,0.17
2013-4-16,55,51,46,49,43,37,99,77,57,29.88,29.55,18,10,38,0.11
2013-4-17,58,49,43,53,47,37,99,92,68,29.89,29.29,23,10,53,0.27
2013-4-18,53,47,44,46,44,41,99,88,72,29.87,29.26,21,11,47,0.40
2013-4-19,55,46,39,45,42,36,99,84,62,30.44,29.88,5,2,11,0.20
2013-4-20,57,46,33,44,39,32,98,78,55,30.45,30.23,9,3,21,0.00
2013-4-21,51,46,41,47,42,34,95,85,69,30.22,29.70,10,5,21,0.00
2013-4-22,58,48,38,52,44,36,96,85,77,29.90,29.70,13,5,27,0.00
2013-4-23,55,51,46,46,44,41,87,77,64,30.11,29.80,9,6,23,0.00
2013-4-24,59,52,48,54,48,42,99,87,71,30.21,29.99,11,5,26,0.04
2013-4-25,52,47,42,49,44,39,99,92,74,30.21,30.03,6,2,14,0.34
2013-4-26,48,42,34,43,38,34,99,87,68,30.05,29.84,9,4,28,0.09
2013-4-27,52,43,34,41,36,32,99,78,51,30.08,29.93,6,3,17,0.02
2013-4-28,51,45,38,48,40,31,93,83,70,30.01,29.68,11,6,25,0.05
2013-4-29,53,46,41,44,40,37,93,79,60,30.09,29.70,11,7,25,0.00
2013-4-30,58,47,38,42,38,32,91,73,43,30.30,30.09,5,2,11,0.00